sensor_id;sensor_type;location;lat;lon;timestamp;P1;durP1;ratioP1;P2;durP2;ratioP2
5674;SDS011;2860;54.284;10.158;2022-11-27T00:02:03;228.98;;;33.13;;
5674;SDS011;2860;54.284;10.158;2022-11-27T00:04:29;204.55;;;31.50;;
5674;SDS011;2860;54.284;10.158;2022-11-27T00:06:54;214.18;;;32.35;;
5674;SDS011;2860;54.284;10.158;2022-11-27T00:09:20;176.35;;;32.72;;
5674;SDS011;2860;54.284;10.158;2022-11-27T00:11:45;295.80;;;35.17;;
5674;SDS011;2860;54.284;10.158;2022-11-27T00:14:12;170.82;;;32.25;;
5674;SDS011;2860;54.284;10.158;2022-11-27T00:16:39;219.18;;;33.20;;
5674;SDS011;2860;54.284;10.158;2022-11-27T00:19:05;157.50;;;31.05;;
5674;SDS011;2860;54.284;10.158;2022-11-27T00:21:32;218.88;;;32.67;;
5674;SDS011;2860;54.284;10.158;2022-11-27T00:24:00;132.15;;;34.17;;
5674;SDS011;2860;54.284;10.158;2022-11-27T00:26:27;205.63;;;32.40;;
5674;SDS011;2860;54.284;10.158;2022-11-27T00:28:53;209.25;;;32.85;;
5674;SDS011;2860;54.284;10.158;2022-11-27T00:31:20;149.13;;;32.60;;
5674;SDS011;2860;54.284;10.158;2022-11-27T00:33:47;155.40;;;31.88;;
5674;SDS011;2860;54.284;10.158;2022-11-27T00:36:13;219.02;;;34.00;;
5674;SDS011;2860;54.284;10.158;2022-11-27T00:38:40;158.30;;;35.20;;
5674;SDS011;2860;54.284;10.158;2022-11-27T00:43:33;174.45;;;29.48;;
5674;SDS011;2860;54.284;10.158;2022-11-27T00:45:59;183.25;;;35.42;;
5674;SDS011;2860;54.284;10.158;2022-11-27T00:48:25;141.30;;;35.55;;
5674;SDS011;2860;54.284;10.158;2022-11-27T00:50:51;171.88;;;33.15;;
5674;SDS011;2860;54.284;10.158;2022-11-27T00:53:16;157.05;;;39.63;;
5674;SDS011;2860;54.284;10.158;2022-11-27T00:55:44;168.85;;;32.88;;
5674;SDS011;2860;54.284;10.158;2022-11-27T00:58:10;167.48;;;30.67;;
5674;SDS011;2860;54.284;10.158;2022-11-27T01:00:35;217.23;;;33.70;;
5674;SDS011;2860;54.284;10.158;2022-11-27T01:03:01;208.38;;;34.35;;
5674;SDS011;2860;54.284;10.158;2022-11-27T01:05:26;136.27;;;33.72;;
5674;SDS011;2860;54.284;10.158;2022-11-27T01:07:52;114.78;;;31.38;;
5674;SDS011;2860;54.284;10.158;2022-11-27T01:10:17;183.52;;;32.72;;
5674;SDS011;2860;54.284;10.158;2022-11-27T01:12:43;144.55;;;30.83;;
5674;SDS011;2860;54.284;10.158;2022-11-27T01:15:08;169.02;;;34.33;;
5674;SDS011;2860;54.284;10.158;2022-11-27T01:17:34;125.22;;;32.10;;
5674;SDS011;2860;54.284;10.158;2022-11-27T01:19:59;142.63;;;33.10;;
5674;SDS011;2860;54.284;10.158;2022-11-27T01:22:25;108.68;;;30.63;;
5674;SDS011;2860;54.284;10.158;2022-11-27T01:24:50;138.27;;;30.75;;
5674;SDS011;2860;54.284;10.158;2022-11-27T01:27:16;163.93;;;32.78;;
5674;SDS011;2860;54.284;10.158;2022-11-27T01:29:41;121.22;;;32.00;;
5674;SDS011;2860;54.284;10.158;2022-11-27T01:32:07;131.88;;;31.48;;
5674;SDS011;2860;54.284;10.158;2022-11-27T01:34:32;120.93;;;33.83;;
5674;SDS011;2860;54.284;10.158;2022-11-27T01:36:58;127.18;;;31.73;;
5674;SDS011;2860;54.284;10.158;2022-11-27T01:39:23;100.40;;;32.70;;
5674;SDS011;2860;54.284;10.158;2022-11-27T01:41:49;124.20;;;32.15;;
5674;SDS011;2860;54.284;10.158;2022-11-27T01:46:59;118.13;;;30.40;;
5674;SDS011;2860;54.284;10.158;2022-11-27T01:52:04;144.05;;;30.30;;
5674;SDS011;2860;54.284;10.158;2022-11-27T01:55:19;145.05;;;31.42;;
5674;SDS011;2860;54.284;10.158;2022-11-27T01:57:23;119.53;;;30.77;;
5674;SDS011;2860;54.284;10.158;2022-11-27T01:59:58;145.50;;;29.63;;
5674;SDS011;2860;54.284;10.158;2022-11-27T02:02:24;129.48;;;31.27;;
5674;SDS011;2860;54.284;10.158;2022-11-27T02:04:50;142.85;;;31.77;;
5674;SDS011;2860;54.284;10.158;2022-11-27T02:07:17;116.47;;;30.77;;
5674;SDS011;2860;54.284;10.158;2022-11-27T02:09:42;111.22;;;30.27;;
5674;SDS011;2860;54.284;10.158;2022-11-27T02:25:41;160.45;;;28.70;;
5674;SDS011;2860;54.284;10.158;2022-11-27T02:31:26;113.65;;;27.33;;
5674;SDS011;2860;54.284;10.158;2022-11-27T02:34:27;102.53;;;26.83;;
5674;SDS011;2860;54.284;10.158;2022-11-27T02:37:08;95.63;;;28.75;;
5674;SDS011;2860;54.284;10.158;2022-11-27T02:39:41;89.70;;;27.48;;
5674;SDS011;2860;54.284;10.158;2022-11-27T02:42:17;92.97;;;26.05;;
5674;SDS011;2860;54.284;10.158;2022-11-27T02:44:46;90.78;;;26.70;;
5674;SDS011;2860;54.284;10.158;2022-11-27T02:47:18;111.65;;;26.40;;
5674;SDS011;2860;54.284;10.158;2022-11-27T02:49:45;95.03;;;26.38;;
5674;SDS011;2860;54.284;10.158;2022-11-27T02:52:14;82.05;;;24.55;;
5674;SDS011;2860;54.284;10.158;2022-11-27T02:54:44;75.43;;;24.67;;
5674;SDS011;2860;54.284;10.158;2022-11-27T02:57:12;89.47;;;24.92;;
5674;SDS011;2860;54.284;10.158;2022-11-27T02:59:39;85.38;;;23.60;;
5674;SDS011;2860;54.284;10.158;2022-11-27T03:02:14;74.97;;;25.08;;
5674;SDS011;2860;54.284;10.158;2022-11-27T03:04:48;75.85;;;23.00;;
5674;SDS011;2860;54.284;10.158;2022-11-27T03:07:18;69.97;;;23.58;;
5674;SDS011;2860;54.284;10.158;2022-11-27T03:09:53;88.38;;;23.67;;
5674;SDS011;2860;54.284;10.158;2022-11-27T03:12:22;79.03;;;21.95;;
5674;SDS011;2860;54.284;10.158;2022-11-27T03:14:48;67.20;;;21.88;;
5674;SDS011;2860;54.284;10.158;2022-11-27T03:20:14;41.70;;;18.52;;
5674;SDS011;2860;54.284;10.158;2022-11-27T03:22:50;50.70;;;19.10;;
5674;SDS011;2860;54.284;10.158;2022-11-27T03:25:19;87.07;;;20.52;;
5674;SDS011;2860;54.284;10.158;2022-11-27T03:27:49;65.78;;;20.70;;
5674;SDS011;2860;54.284;10.158;2022-11-27T03:30:19;66.45;;;18.20;;
5674;SDS011;2860;54.284;10.158;2022-11-27T03:32:45;79.97;;;20.38;;
5674;SDS011;2860;54.284;10.158;2022-11-27T03:35:11;54.45;;;19.42;;
5674;SDS011;2860;54.284;10.158;2022-11-27T03:37:40;43.60;;;19.35;;
5674;SDS011;2860;54.284;10.158;2022-11-27T03:40:06;119.30;;;19.40;;
5674;SDS011;2860;54.284;10.158;2022-11-27T03:42:39;99.45;;;19.77;;
5674;SDS011;2860;54.284;10.158;2022-11-27T03:50:52;90.45;;;20.08;;
5674;SDS011;2860;54.284;10.158;2022-11-27T03:53:41;74.13;;;19.60;;
5674;SDS011;2860;54.284;10.158;2022-11-27T03:56:13;51.70;;;17.05;;
5674;SDS011;2860;54.284;10.158;2022-11-27T03:59:02;42.83;;;17.75;;
5674;SDS011;2860;54.284;10.158;2022-11-27T04:01:33;43.60;;;17.52;;
5674;SDS011;2860;54.284;10.158;2022-11-27T04:03:59;55.67;;;19.42;;
5674;SDS011;2860;54.284;10.158;2022-11-27T04:06:25;55.58;;;18.88;;
5674;SDS011;2860;54.284;10.158;2022-11-27T04:08:51;59.97;;;18.10;;
5674;SDS011;2860;54.284;10.158;2022-11-27T04:11:16;65.28;;;18.70;;
5674;SDS011;2860;54.284;10.158;2022-11-27T04:13:42;42.60;;;18.00;;
5674;SDS011;2860;54.284;10.158;2022-11-27T04:16:07;52.30;;;17.52;;
5674;SDS011;2860;54.284;10.158;2022-11-27T04:18:33;52.72;;;17.92;;
5674;SDS011;2860;54.284;10.158;2022-11-27T04:20:58;75.50;;;18.38;;
5674;SDS011;2860;54.284;10.158;2022-11-27T04:23:24;40.15;;;16.92;;
5674;SDS011;2860;54.284;10.158;2022-11-27T04:25:49;42.67;;;18.20;;
5674;SDS011;2860;54.284;10.158;2022-11-27T04:28:15;47.67;;;16.92;;
5674;SDS011;2860;54.284;10.158;2022-11-27T04:30:42;54.50;;;17.38;;
5674;SDS011;2860;54.284;10.158;2022-11-27T04:33:08;81.68;;;18.48;;
5674;SDS011;2860;54.284;10.158;2022-11-27T04:35:33;46.63;;;16.00;;
5674;SDS011;2860;54.284;10.158;2022-11-27T04:37:59;38.35;;;16.33;;
5674;SDS011;2860;54.284;10.158;2022-11-27T04:40:24;46.15;;;17.33;;
5674;SDS011;2860;54.284;10.158;2022-11-27T04:42:50;42.30;;;16.67;;
5674;SDS011;2860;54.284;10.158;2022-11-27T04:45:16;68.55;;;17.63;;
5674;SDS011;2860;54.284;10.158;2022-11-27T04:47:41;39.78;;;15.18;;
5674;SDS011;2860;54.284;10.158;2022-11-27T04:50:07;49.85;;;15.52;;
5674;SDS011;2860;54.284;10.158;2022-11-27T04:52:34;35.20;;;16.55;;
5674;SDS011;2860;54.284;10.158;2022-11-27T04:55:00;42.00;;;16.10;;
5674;SDS011;2860;54.284;10.158;2022-11-27T04:57:25;37.72;;;15.07;;
5674;SDS011;2860;54.284;10.158;2022-11-27T04:59:51;53.53;;;15.88;;
5674;SDS011;2860;54.284;10.158;2022-11-27T05:02:16;48.85;;;14.75;;
5674;SDS011;2860;54.284;10.158;2022-11-27T05:04:42;57.58;;;17.70;;
5674;SDS011;2860;54.284;10.158;2022-11-27T05:07:07;46.15;;;15.43;;
5674;SDS011;2860;54.284;10.158;2022-11-27T05:09:33;37.78;;;15.32;;
5674;SDS011;2860;54.284;10.158;2022-11-27T05:11:58;70.15;;;20.15;;
5674;SDS011;2860;54.284;10.158;2022-11-27T05:14:24;50.17;;;15.38;;
5674;SDS011;2860;54.284;10.158;2022-11-27T05:16:53;43.13;;;15.35;;
5674;SDS011;2860;54.284;10.158;2022-11-27T05:19:21;39.70;;;15.82;;
5674;SDS011;2860;54.284;10.158;2022-11-27T05:21:48;53.13;;;16.27;;
5674;SDS011;2860;54.284;10.158;2022-11-27T05:24:15;56.65;;;17.02;;
5674;SDS011;2860;54.284;10.158;2022-11-27T05:26:42;40.80;;;14.95;;
5674;SDS011;2860;54.284;10.158;2022-11-27T05:29:08;32.97;;;14.13;;
5674;SDS011;2860;54.284;10.158;2022-11-27T05:31:34;39.20;;;15.75;;
5674;SDS011;2860;54.284;10.158;2022-11-27T05:34:00;42.50;;;15.85;;
5674;SDS011;2860;54.284;10.158;2022-11-27T05:36:26;51.53;;;16.90;;
5674;SDS011;2860;54.284;10.158;2022-11-27T05:38:53;47.88;;;17.33;;
5674;SDS011;2860;54.284;10.158;2022-11-27T05:41:18;57.65;;;18.95;;
5674;SDS011;2860;54.284;10.158;2022-11-27T05:43:44;40.22;;;15.18;;
5674;SDS011;2860;54.284;10.158;2022-11-27T05:46:11;37.70;;;15.80;;
5674;SDS011;2860;54.284;10.158;2022-11-27T05:48:38;50.75;;;16.58;;
5674;SDS011;2860;54.284;10.158;2022-11-27T05:51:04;48.17;;;16.83;;
5674;SDS011;2860;54.284;10.158;2022-11-27T05:53:30;32.80;;;14.05;;
5674;SDS011;2860;54.284;10.158;2022-11-27T05:56:09;63.25;;;16.13;;
5674;SDS011;2860;54.284;10.158;2022-11-27T05:58:40;60.10;;;16.52;;
5674;SDS011;2860;54.284;10.158;2022-11-27T06:01:07;37.25;;;15.77;;
5674;SDS011;2860;54.284;10.158;2022-11-27T06:03:35;59.83;;;16.63;;
5674;SDS011;2860;54.284;10.158;2022-11-27T06:06:09;58.03;;;18.98;;
5674;SDS011;2860;54.284;10.158;2022-11-27T06:08:38;40.60;;;18.00;;
5674;SDS011;2860;54.284;10.158;2022-11-27T06:11:05;57.70;;;17.73;;
5674;SDS011;2860;54.284;10.158;2022-11-27T06:13:34;61.88;;;16.83;;
5674;SDS011;2860;54.284;10.158;2022-11-27T06:16:10;47.58;;;18.58;;
5674;SDS011;2860;54.284;10.158;2022-11-27T06:18:37;53.20;;;18.63;;
5674;SDS011;2860;54.284;10.158;2022-11-27T06:21:10;78.05;;;19.77;;
5674;SDS011;2860;54.284;10.158;2022-11-27T06:23:37;69.35;;;19.98;;
5674;SDS011;2860;54.284;10.158;2022-11-27T06:26:14;66.25;;;19.10;;
5674;SDS011;2860;54.284;10.158;2022-11-27T06:28:44;56.92;;;20.40;;
5674;SDS011;2860;54.284;10.158;2022-11-27T06:31:12;51.35;;;20.10;;
5674;SDS011;2860;54.284;10.158;2022-11-27T06:33:42;69.38;;;22.33;;
5674;SDS011;2860;54.284;10.158;2022-11-27T06:36:08;85.50;;;20.33;;
5674;SDS011;2860;54.284;10.158;2022-11-27T06:38:34;53.45;;;22.50;;
5674;SDS011;2860;54.284;10.158;2022-11-27T06:41:02;61.60;;;21.38;;
5674;SDS011;2860;54.284;10.158;2022-11-27T06:43:28;88.35;;;20.88;;
5674;SDS011;2860;54.284;10.158;2022-11-27T06:45:55;68.75;;;21.88;;
5674;SDS011;2860;54.284;10.158;2022-11-27T06:48:21;67.78;;;21.25;;
5674;SDS011;2860;54.284;10.158;2022-11-27T06:50:47;70.57;;;22.13;;
5674;SDS011;2860;54.284;10.158;2022-11-27T06:53:12;79.43;;;21.45;;
5674;SDS011;2860;54.284;10.158;2022-11-27T06:55:38;54.78;;;20.13;;
5674;SDS011;2860;54.284;10.158;2022-11-27T06:58:03;88.45;;;22.33;;
5674;SDS011;2860;54.284;10.158;2022-11-27T07:00:29;75.65;;;21.75;;
5674;SDS011;2860;54.284;10.158;2022-11-27T07:02:54;96.65;;;30.83;;
5674;SDS011;2860;54.284;10.158;2022-11-27T07:05:20;103.90;;;24.67;;
5674;SDS011;2860;54.284;10.158;2022-11-27T07:07:46;102.32;;;24.40;;
5674;SDS011;2860;54.284;10.158;2022-11-27T07:10:12;93.45;;;22.00;;
5674;SDS011;2860;54.284;10.158;2022-11-27T07:12:37;90.32;;;24.38;;
5674;SDS011;2860;54.284;10.158;2022-11-27T07:15:03;80.05;;;21.23;;
5674;SDS011;2860;54.284;10.158;2022-11-27T07:17:29;61.03;;;21.67;;
5674;SDS011;2860;54.284;10.158;2022-11-27T07:19:54;96.03;;;23.48;;
5674;SDS011;2860;54.284;10.158;2022-11-27T07:22:19;75.43;;;22.48;;
5674;SDS011;2860;54.284;10.158;2022-11-27T07:24:45;88.78;;;22.38;;
5674;SDS011;2860;54.284;10.158;2022-11-27T07:27:10;65.70;;;21.88;;
5674;SDS011;2860;54.284;10.158;2022-11-27T07:29:36;115.30;;;23.25;;
5674;SDS011;2860;54.284;10.158;2022-11-27T07:32:01;70.15;;;22.17;;
5674;SDS011;2860;54.284;10.158;2022-11-27T07:34:27;86.93;;;23.33;;
5674;SDS011;2860;54.284;10.158;2022-11-27T07:36:52;76.70;;;21.13;;
5674;SDS011;2860;54.284;10.158;2022-11-27T07:39:18;94.25;;;21.67;;
5674;SDS011;2860;54.284;10.158;2022-11-27T07:41:43;63.47;;;20.70;;
5674;SDS011;2860;54.284;10.158;2022-11-27T07:44:09;92.32;;;21.80;;
5674;SDS011;2860;54.284;10.158;2022-11-27T07:46:34;69.60;;;20.77;;
5674;SDS011;2860;54.284;10.158;2022-11-27T07:49:00;72.90;;;20.02;;
5674;SDS011;2860;54.284;10.158;2022-11-27T07:51:26;71.57;;;20.05;;
5674;SDS011;2860;54.284;10.158;2022-11-27T07:53:51;63.17;;;18.42;;
5674;SDS011;2860;54.284;10.158;2022-11-27T07:56:17;51.72;;;20.27;;
5674;SDS011;2860;54.284;10.158;2022-11-27T07:58:43;57.15;;;18.33;;
5674;SDS011;2860;54.284;10.158;2022-11-27T08:01:11;50.67;;;20.67;;
5674;SDS011;2860;54.284;10.158;2022-11-27T08:03:38;69.70;;;21.02;;
5674;SDS011;2860;54.284;10.158;2022-11-27T08:06:04;55.05;;;20.63;;
5674;SDS011;2860;54.284;10.158;2022-11-27T08:08:42;73.53;;;19.38;;
5674;SDS011;2860;54.284;10.158;2022-11-27T08:11:17;60.47;;;20.85;;
5674;SDS011;2860;54.284;10.158;2022-11-27T08:13:45;57.15;;;21.02;;
5674;SDS011;2860;54.284;10.158;2022-11-27T08:16:10;61.42;;;19.85;;
5674;SDS011;2860;54.284;10.158;2022-11-27T08:18:36;65.00;;;19.75;;
5674;SDS011;2860;54.284;10.158;2022-11-27T08:21:01;77.38;;;22.90;;
5674;SDS011;2860;54.284;10.158;2022-11-27T08:23:27;64.50;;;21.90;;
5674;SDS011;2860;54.284;10.158;2022-11-27T08:25:52;52.72;;;20.00;;
5674;SDS011;2860;54.284;10.158;2022-11-27T08:28:18;53.63;;;20.65;;
5674;SDS011;2860;54.284;10.158;2022-11-27T08:30:43;47.97;;;19.67;;
5674;SDS011;2860;54.284;10.158;2022-11-27T08:33:11;58.20;;;20.88;;
5674;SDS011;2860;54.284;10.158;2022-11-27T08:35:37;55.78;;;20.85;;
5674;SDS011;2860;54.284;10.158;2022-11-27T08:38:02;57.00;;;23.00;;
5674;SDS011;2860;54.284;10.158;2022-11-27T08:40:28;44.05;;;20.70;;
5674;SDS011;2860;54.284;10.158;2022-11-27T08:42:53;53.00;;;23.00;;
5674;SDS011;2860;54.284;10.158;2022-11-27T08:45:19;53.95;;;23.17;;
5674;SDS011;2860;54.284;10.158;2022-11-27T08:47:44;51.45;;;23.55;;
5674;SDS011;2860;54.284;10.158;2022-11-27T08:50:10;51.90;;;23.33;;
5674;SDS011;2860;54.284;10.158;2022-11-27T08:52:35;61.60;;;22.48;;
5674;SDS011;2860;54.284;10.158;2022-11-27T08:55:01;47.60;;;22.73;;
5674;SDS011;2860;54.284;10.158;2022-11-27T08:57:26;62.97;;;23.98;;
5674;SDS011;2860;54.284;10.158;2022-11-27T08:59:52;69.95;;;25.25;;
5674;SDS011;2860;54.284;10.158;2022-11-27T09:02:17;55.90;;;22.00;;
5674;SDS011;2860;54.284;10.158;2022-11-27T09:04:43;49.08;;;22.90;;
5674;SDS011;2860;54.284;10.158;2022-11-27T09:07:08;52.40;;;22.38;;
5674;SDS011;2860;54.284;10.158;2022-11-27T09:09:38;51.78;;;23.77;;
5674;SDS011;2860;54.284;10.158;2022-11-27T09:12:03;49.85;;;22.52;;
5674;SDS011;2860;54.284;10.158;2022-11-27T09:14:29;54.15;;;22.55;;
5674;SDS011;2860;54.284;10.158;2022-11-27T09:16:54;53.42;;;22.42;;
5674;SDS011;2860;54.284;10.158;2022-11-27T09:19:20;40.08;;;21.20;;
5674;SDS011;2860;54.284;10.158;2022-11-27T09:21:47;48.75;;;21.13;;
5674;SDS011;2860;54.284;10.158;2022-11-27T09:24:13;59.90;;;21.08;;
5674;SDS011;2860;54.284;10.158;2022-11-27T09:26:39;45.03;;;21.77;;
5674;SDS011;2860;54.284;10.158;2022-11-27T09:29:04;53.85;;;21.58;;
5674;SDS011;2860;54.284;10.158;2022-11-27T09:31:30;37.80;;;19.08;;
5674;SDS011;2860;54.284;10.158;2022-11-27T09:33:56;43.75;;;20.02;;
5674;SDS011;2860;54.284;10.158;2022-11-27T09:36:23;49.78;;;22.65;;
5674;SDS011;2860;54.284;10.158;2022-11-27T09:38:49;52.15;;;20.67;;
5674;SDS011;2860;54.284;10.158;2022-11-27T09:41:23;35.83;;;19.25;;
5674;SDS011;2860;54.284;10.158;2022-11-27T09:43:59;40.50;;;17.98;;
5674;SDS011;2860;54.284;10.158;2022-11-27T09:46:49;41.58;;;20.27;;
5674;SDS011;2860;54.284;10.158;2022-11-27T09:49:19;41.17;;;19.67;;
5674;SDS011;2860;54.284;10.158;2022-11-27T09:51:58;38.67;;;18.40;;
5674;SDS011;2860;54.284;10.158;2022-11-27T09:57:04;37.50;;;18.40;;
5674;SDS011;2860;54.284;10.158;2022-11-27T09:59:42;46.83;;;18.42;;
5674;SDS011;2860;54.284;10.158;2022-11-27T10:02:16;38.72;;;19.65;;
5674;SDS011;2860;54.284;10.158;2022-11-27T10:04:46;38.03;;;18.98;;
5674;SDS011;2860;54.284;10.158;2022-11-27T10:07:14;42.30;;;19.17;;
5674;SDS011;2860;54.284;10.158;2022-11-27T10:15:06;42.80;;;20.50;;
5674;SDS011;2860;54.284;10.158;2022-11-27T10:20:21;42.78;;;17.65;;
5674;SDS011;2860;54.284;10.158;2022-11-27T10:25:47;34.45;;;18.48;;
5674;SDS011;2860;54.284;10.158;2022-11-27T10:34:02;39.55;;;18.17;;
5674;SDS011;2860;54.284;10.158;2022-11-27T10:36:47;38.58;;;19.08;;
5674;SDS011;2860;54.284;10.158;2022-11-27T10:42:02;38.42;;;16.95;;
5674;SDS011;2860;54.284;10.158;2022-11-27T10:44:40;40.00;;;17.27;;
5674;SDS011;2860;54.284;10.158;2022-11-27T10:47:12;40.08;;;17.85;;
5674;SDS011;2860;54.284;10.158;2022-11-27T10:49:39;45.55;;;18.00;;
5674;SDS011;2860;54.284;10.158;2022-11-27T10:52:12;40.08;;;17.13;;
5674;SDS011;2860;54.284;10.158;2022-11-27T10:54:40;38.15;;;19.35;;
5674;SDS011;2860;54.284;10.158;2022-11-27T10:57:27;42.67;;;19.50;;
5674;SDS011;2860;54.284;10.158;2022-11-27T11:00:20;36.30;;;16.52;;
5674;SDS011;2860;54.284;10.158;2022-11-27T11:02:57;41.25;;;16.83;;
5674;SDS011;2860;54.284;10.158;2022-11-27T11:05:24;33.38;;;16.98;;
5674;SDS011;2860;54.284;10.158;2022-11-27T11:08:37;32.15;;;17.33;;
5674;SDS011;2860;54.284;10.158;2022-11-27T11:10:59;33.35;;;16.33;;
5674;SDS011;2860;54.284;10.158;2022-11-27T11:13:29;27.52;;;16.15;;
5674;SDS011;2860;54.284;10.158;2022-11-27T11:15:57;30.30;;;16.08;;
5674;SDS011;2860;54.284;10.158;2022-11-27T11:18:26;28.88;;;16.73;;
5674;SDS011;2860;54.284;10.158;2022-11-27T11:20:55;24.92;;;15.88;;
5674;SDS011;2860;54.284;10.158;2022-11-27T11:23:30;29.88;;;16.17;;
5674;SDS011;2860;54.284;10.158;2022-11-27T11:26:02;29.90;;;15.77;;
5674;SDS011;2860;54.284;10.158;2022-11-27T11:28:34;26.35;;;16.02;;
5674;SDS011;2860;54.284;10.158;2022-11-27T11:31:12;32.58;;;15.95;;
5674;SDS011;2860;54.284;10.158;2022-11-27T11:33:49;30.40;;;16.33;;
5674;SDS011;2860;54.284;10.158;2022-11-27T11:36:18;30.90;;;15.25;;
5674;SDS011;2860;54.284;10.158;2022-11-27T11:38:44;27.75;;;15.68;;
5674;SDS011;2860;54.284;10.158;2022-11-27T11:41:11;32.33;;;16.35;;
5674;SDS011;2860;54.284;10.158;2022-11-27T11:43:38;29.00;;;15.05;;
5674;SDS011;2860;54.284;10.158;2022-11-27T11:46:15;28.42;;;14.93;;
5674;SDS011;2860;54.284;10.158;2022-11-27T11:51:54;21.42;;;14.30;;
5674;SDS011;2860;54.284;10.158;2022-11-27T11:57:35;28.70;;;15.73;;
5674;SDS011;2860;54.284;10.158;2022-11-27T12:00:08;24.55;;;14.20;;
5674;SDS011;2860;54.284;10.158;2022-11-27T12:16:54;23.17;;;14.00;;
5674;SDS011;2860;54.284;10.158;2022-11-27T12:19:23;29.00;;;13.57;;
5674;SDS011;2860;54.284;10.158;2022-11-27T12:25:26;22.63;;;14.95;;
5674;SDS011;2860;54.284;10.158;2022-11-27T12:28:11;27.85;;;13.50;;
5674;SDS011;2860;54.284;10.158;2022-11-27T12:33:29;21.13;;;14.00;;
5674;SDS011;2860;54.284;10.158;2022-11-27T12:36:19;20.65;;;13.73;;
5674;SDS011;2860;54.284;10.158;2022-11-27T12:47:35;23.17;;;15.10;;
5674;SDS011;2860;54.284;10.158;2022-11-27T12:52:42;32.33;;;21.33;;
5674;SDS011;2860;54.284;10.158;2022-11-27T12:55:14;20.92;;;14.15;;
5674;SDS011;2860;54.284;10.158;2022-11-27T12:57:46;29.15;;;14.70;;
5674;SDS011;2860;54.284;10.158;2022-11-27T13:00:19;23.08;;;13.95;;
5674;SDS011;2860;54.284;10.158;2022-11-27T13:05:52;28.13;;;14.95;;
5674;SDS011;2860;54.284;10.158;2022-11-27T13:08:26;25.33;;;15.23;;
5674;SDS011;2860;54.284;10.158;2022-11-27T13:10:56;19.02;;;13.43;;
5674;SDS011;2860;54.284;10.158;2022-11-27T13:13:29;22.52;;;14.80;;
5674;SDS011;2860;54.284;10.158;2022-11-27T13:21:25;26.45;;;14.55;;
5674;SDS011;2860;54.284;10.158;2022-11-27T13:23:58;23.33;;;14.05;;
5674;SDS011;2860;54.284;10.158;2022-11-27T13:26:35;19.20;;;13.85;;
5674;SDS011;2860;54.284;10.158;2022-11-27T13:29:26;21.67;;;14.23;;
5674;SDS011;2860;54.284;10.158;2022-11-27T13:31:55;22.60;;;13.95;;
5674;SDS011;2860;54.284;10.158;2022-11-27T13:34:23;23.02;;;13.35;;
5674;SDS011;2860;54.284;10.158;2022-11-27T13:37:17;25.23;;;14.20;;
5674;SDS011;2860;54.284;10.158;2022-11-27T13:40:04;26.73;;;13.98;;
5674;SDS011;2860;54.284;10.158;2022-11-27T13:42:40;21.70;;;13.07;;
5674;SDS011;2860;54.284;10.158;2022-11-27T13:45:18;21.42;;;13.52;;
5674;SDS011;2860;54.284;10.158;2022-11-27T13:47:51;21.77;;;13.95;;
5674;SDS011;2860;54.284;10.158;2022-11-27T13:50:19;23.63;;;16.73;;
5674;SDS011;2860;54.284;10.158;2022-11-27T13:52:56;38.70;;;21.00;;
5674;SDS011;2860;54.284;10.158;2022-11-27T13:55:26;44.90;;;16.58;;
5674;SDS011;2860;54.284;10.158;2022-11-27T13:57:57;20.33;;;13.50;;
5674;SDS011;2860;54.284;10.158;2022-11-27T14:00:57;26.15;;;13.52;;
5674;SDS011;2860;54.284;10.158;2022-11-27T14:03:25;20.90;;;13.48;;
5674;SDS011;2860;54.284;10.158;2022-11-27T14:05:53;21.40;;;15.00;;
5674;SDS011;2860;54.284;10.158;2022-11-27T14:08:20;17.98;;;14.07;;
5674;SDS011;2860;54.284;10.158;2022-11-27T14:10:51;18.95;;;13.00;;
5674;SDS011;2860;54.284;10.158;2022-11-27T14:13:17;19.40;;;13.52;;
5674;SDS011;2860;54.284;10.158;2022-11-27T14:15:54;19.95;;;13.50;;
5674;SDS011;2860;54.284;10.158;2022-11-27T14:18:25;19.13;;;11.68;;
5674;SDS011;2860;54.284;10.158;2022-11-27T14:20:53;23.23;;;13.75;;
5674;SDS011;2860;54.284;10.158;2022-11-27T14:23:35;16.92;;;12.52;;
5674;SDS011;2860;54.284;10.158;2022-11-27T14:28:39;24.58;;;13.68;;
5674;SDS011;2860;54.284;10.158;2022-11-27T14:31:17;26.27;;;13.40;;
5674;SDS011;2860;54.284;10.158;2022-11-27T14:33:51;19.95;;;13.65;;
5674;SDS011;2860;54.284;10.158;2022-11-27T14:36:20;19.13;;;13.15;;
5674;SDS011;2860;54.284;10.158;2022-11-27T14:38:48;19.58;;;13.13;;
5674;SDS011;2860;54.284;10.158;2022-11-27T14:41:15;17.80;;;12.77;;
5674;SDS011;2860;54.284;10.158;2022-11-27T14:43:43;21.25;;;13.52;;
5674;SDS011;2860;54.284;10.158;2022-11-27T14:46:13;17.08;;;12.48;;
5674;SDS011;2860;54.284;10.158;2022-11-27T14:48:51;26.70;;;12.50;;
5674;SDS011;2860;54.284;10.158;2022-11-27T14:51:21;14.00;;;11.68;;
5674;SDS011;2860;54.284;10.158;2022-11-27T14:53:49;20.73;;;13.00;;
5674;SDS011;2860;54.284;10.158;2022-11-27T14:56:25;17.40;;;12.55;;
5674;SDS011;2860;54.284;10.158;2022-11-27T14:58:56;24.17;;;14.10;;
5674;SDS011;2860;54.284;10.158;2022-11-27T15:03:55;24.80;;;13.88;;
5674;SDS011;2860;54.284;10.158;2022-11-27T15:06:22;21.88;;;13.52;;
5674;SDS011;2860;54.284;10.158;2022-11-27T15:08:49;20.05;;;13.65;;
5674;SDS011;2860;54.284;10.158;2022-11-27T15:11:15;23.27;;;12.90;;
5674;SDS011;2860;54.284;10.158;2022-11-27T15:13:41;24.63;;;14.02;;
5674;SDS011;2860;54.284;10.158;2022-11-27T15:16:14;18.35;;;12.13;;
5674;SDS011;2860;54.284;10.158;2022-11-27T15:18:42;20.98;;;13.70;;
5674;SDS011;2860;54.284;10.158;2022-11-27T15:21:17;20.70;;;14.02;;
5674;SDS011;2860;54.284;10.158;2022-11-27T15:23:45;18.40;;;14.25;;
5674;SDS011;2860;54.284;10.158;2022-11-27T15:26:14;20.67;;;15.02;;
5674;SDS011;2860;54.284;10.158;2022-11-27T15:28:52;22.77;;;12.95;;
5674;SDS011;2860;54.284;10.158;2022-11-27T15:31:22;26.55;;;13.75;;
5674;SDS011;2860;54.284;10.158;2022-11-27T15:33:55;27.38;;;14.98;;
5674;SDS011;2860;54.284;10.158;2022-11-27T15:36:22;33.85;;;17.98;;
5674;SDS011;2860;54.284;10.158;2022-11-27T15:38:48;24.35;;;14.20;;
5674;SDS011;2860;54.284;10.158;2022-11-27T15:41:26;22.48;;;13.10;;
5674;SDS011;2860;54.284;10.158;2022-11-27T15:43:52;18.50;;;12.73;;
5674;SDS011;2860;54.284;10.158;2022-11-27T15:46:23;21.48;;;13.15;;
5674;SDS011;2860;54.284;10.158;2022-11-27T15:48:51;22.10;;;13.45;;
5674;SDS011;2860;54.284;10.158;2022-11-27T15:51:17;19.00;;;14.18;;
5674;SDS011;2860;54.284;10.158;2022-11-27T15:53:42;24.40;;;13.32;;
5674;SDS011;2860;54.284;10.158;2022-11-27T15:56:08;22.63;;;12.60;;
5674;SDS011;2860;54.284;10.158;2022-11-27T15:58:33;23.00;;;14.13;;
5674;SDS011;2860;54.284;10.158;2022-11-27T16:00:59;17.60;;;12.88;;
5674;SDS011;2860;54.284;10.158;2022-11-27T16:03:24;18.67;;;14.10;;
5674;SDS011;2860;54.284;10.158;2022-11-27T16:05:50;22.10;;;13.57;;
5674;SDS011;2860;54.284;10.158;2022-11-27T16:08:15;21.83;;;13.60;;
5674;SDS011;2860;54.284;10.158;2022-11-27T16:10:41;24.58;;;13.40;;
5674;SDS011;2860;54.284;10.158;2022-11-27T16:13:07;19.40;;;13.02;;
5674;SDS011;2860;54.284;10.158;2022-11-27T16:15:33;28.67;;;13.63;;
5674;SDS011;2860;54.284;10.158;2022-11-27T16:17:58;15.85;;;12.25;;
5674;SDS011;2860;54.284;10.158;2022-11-27T16:20:24;20.35;;;12.60;;
5674;SDS011;2860;54.284;10.158;2022-11-27T16:22:50;24.55;;;13.80;;
5674;SDS011;2860;54.284;10.158;2022-11-27T16:25:16;22.45;;;13.48;;
5674;SDS011;2860;54.284;10.158;2022-11-27T16:27:41;26.65;;;14.23;;
5674;SDS011;2860;54.284;10.158;2022-11-27T16:30:07;16.58;;;13.07;;
5674;SDS011;2860;54.284;10.158;2022-11-27T16:32:36;19.92;;;13.93;;